createdAt,value
2019-04-11T00:02:22.687Z,30.50
2019-04-11T00:04:55.014Z,30.60
2019-04-11T00:07:27.934Z,30.57
2019-04-11T00:09:59.466Z,30.58
2019-04-11T00:12:32.658Z,30.01
2019-04-11T00:15:04.373Z,30.22
2019-04-11T00:17:36.293Z,30.54
2019-04-11T00:20:07.974Z,30.55
2019-04-11T00:22:41.515Z,30.50
2019-04-11T00:25:13.584Z,30.61
2019-04-11T00:27:46.787Z,30.16
2019-04-11T00:30:19.833Z,30.16
2019-04-11T00:32:51.864Z,29.98
2019-04-11T00:35:23.987Z,30.19
2019-04-11T00:37:55.840Z,30.47
2019-04-11T00:40:27.475Z,30.47
2019-04-11T00:42:59.100Z,30.38
2019-04-11T00:45:31.802Z,30.45
2019-04-11T00:48:03.842Z,30.35
2019-04-11T00:50:35.749Z,30.35
2019-04-11T00:53:07.310Z,30.24
2019-04-11T00:55:39.846Z,30.28
2019-04-11T00:58:11.689Z,30.43
2019-04-11T01:00:44.735Z,30.45
2019-04-11T01:03:17.991Z,30.63
2019-04-11T01:05:49.972Z,30.56
2019-04-11T01:08:21.862Z,30.56
2019-04-11T01:10:53.344Z,30.58
2019-04-11T01:13:25.917Z,30.69
2019-04-11T01:16:03.146Z,30.69
2019-04-11T01:18:34.801Z,30.80
2019-04-11T01:21:06.709Z,31.16
2019-04-11T01:23:39.410Z,31.08
2019-04-11T01:26:10.967Z,31.08
2019-04-11T01:28:42.940Z,30.89
2019-04-11T01:31:15.636Z,30.89
2019-04-11T01:33:48.303Z,30.80
2019-04-11T01:36:20.598Z,31.52
2019-04-11T01:38:55.342Z,31.74
2019-04-11T01:41:26.719Z,31.57
2019-04-11T01:44:02.149Z,31.54
2019-04-11T01:46:31.941Z,31.54
2019-04-11T01:49:17.638Z,31.50
2019-04-11T01:51:49.778Z,31.50
2019-04-11T01:54:21.832Z,31.45
2019-04-11T01:56:53.780Z,31.54
2019-04-11T01:59:25.645Z,31.29
2019-04-11T02:02:13.943Z,31.49
2019-04-11T02:05:05.324Z,31.49
2019-04-11T02:07:37.045Z,31.68
2019-04-11T02:10:09.144Z,31.83
2019-04-11T02:12:41.572Z,31.88
2019-04-11T02:15:14.305Z,31.78
2019-04-11T02:17:46.735Z,31.96
2019-04-11T02:20:18.769Z,32.17
2019-04-11T02:23:07.367Z,32.27
2019-04-11T02:25:58.055Z,32.33
2019-04-11T02:28:30.912Z,32.54
2019-04-11T02:31:04.604Z,32.75
2019-04-11T02:33:37.118Z,32.91
2019-04-11T02:36:11.728Z,32.91
2019-04-11T02:38:44.054Z,33.13
2019-04-11T02:41:17.091Z,33.26
2019-04-11T02:43:49.478Z,33.00
2019-04-11T02:46:34.722Z,33.04
2019-04-11T02:48:56.792Z,33.30
2019-04-11T02:51:31.138Z,33.42
2019-04-11T02:54:04.557Z,33.42
2019-04-11T02:56:36.525Z,33.86
2019-04-11T02:59:08.995Z,33.86
2019-04-11T03:01:42.024Z,33.96
2019-04-11T03:04:14.843Z,34.10
2019-04-11T03:06:47.910Z,34.21
2019-04-11T03:09:21.874Z,34.07
2019-04-11T03:11:54.709Z,34.05
2019-04-11T03:14:32.751Z,34.12
2019-04-11T03:17:11.907Z,34.36
2019-04-11T03:19:47.717Z,34.66
2019-04-11T03:22:09.837Z,34.60
2019-04-11T03:24:42.945Z,34.68
2019-04-11T03:27:15.456Z,35.03
2019-04-11T03:29:49.350Z,34.99
2019-04-11T03:33:27.718Z,35.05
2019-04-11T03:35:51.699Z,35.24
2019-04-11T03:37:56.633Z,35.17
2019-04-11T03:40:22.451Z,35.51
2019-04-11T03:42:57.071Z,35.62
2019-04-11T03:45:33.108Z,35.62
2019-04-11T03:48:02.400Z,35.57
2019-04-11T03:50:26.110Z,35.72
2019-04-11T03:52:59.492Z,35.60
2019-04-11T03:55:32.274Z,35.76
2019-04-11T03:58:05.962Z,35.84
2019-04-11T04:00:42.587Z,35.84
2019-04-11T04:03:14.159Z,36.06
2019-04-11T04:05:46.080Z,36.02
2019-04-11T04:08:18.276Z,35.19
2019-04-11T04:11:14.883Z,35.19
2019-04-11T04:14:05.765Z,35.41
2019-04-11T04:17:04.251Z,35.63
2019-04-11T04:19:45.571Z,35.33
2019-04-11T04:22:32.198Z,35.46
2019-04-11T04:25:04.477Z,35.31
2019-04-11T04:27:36.365Z,35.62
2019-04-11T04:30:08.771Z,35.62
2019-04-11T04:32:42.853Z,34.90
2019-04-11T04:35:19.020Z,35.37
2019-04-11T04:37:49.751Z,35.32
2019-04-11T04:40:35.542Z,35.32
2019-04-11T04:42:58.371Z,35.50
2019-04-11T04:45:36.157Z,35.50
2019-04-11T04:48:08.456Z,35.77
2019-04-11T04:50:38.751Z,35.73
2019-04-11T04:53:10.123Z,35.83
2019-04-11T04:55:43.428Z,36.00
2019-04-11T04:58:15.922Z,36.06
2019-04-11T05:00:51.120Z,35.67
2019-04-11T05:03:24.400Z,35.92
2019-04-11T05:05:55.813Z,36.13
2019-04-11T05:08:27.428Z,35.07
2019-04-11T05:10:59.137Z,35.83
2019-04-11T05:13:32.339Z,36.23
2019-04-11T05:16:15.150Z,36.34
2019-04-11T05:18:38.122Z,36.27
2019-04-11T05:21:10.698Z,35.95
2019-04-11T05:23:42.693Z,36.45
2019-04-11T05:26:15.207Z,36.45
2019-04-11T05:28:46.864Z,36.63
2019-04-11T05:31:20.535Z,36.42
2019-04-11T05:33:52.386Z,36.42
2019-04-11T05:36:24.725Z,36.52
2019-04-11T05:38:56.703Z,36.83
2019-04-11T05:41:29.302Z,36.78
2019-04-11T05:44:03.468Z,36.67
2019-04-11T05:46:47.238Z,36.89
2019-04-11T05:49:35.137Z,36.86
2019-04-11T05:52:10.262Z,37.23
2019-04-11T05:54:48.010Z,36.80
2019-04-11T05:57:22.648Z,37.01
2019-04-11T05:59:54.337Z,37.01
2019-04-11T06:02:45.663Z,36.94
2019-04-11T06:05:32.513Z,37.08
2019-04-11T06:08:05.466Z,37.23
2019-04-11T06:11:04.332Z,37.23
2019-04-11T06:13:47.351Z,37.47
2019-04-11T06:16:19.425Z,37.27
2019-04-11T06:19:22.877Z,37.27
2019-04-11T06:22:09.202Z,37.27
2019-04-11T06:25:11.246Z,37.69
2019-04-11T06:27:55.793Z,37.04
2019-04-11T06:30:40.314Z,37.50
2019-04-11T06:33:29.436Z,37.40
2019-04-11T06:36:26.700Z,37.37
2019-04-11T06:39:24.071Z,37.72
2019-04-11T06:42:15.052Z,37.65
2019-04-11T06:45:04.644Z,37.98
2019-04-11T06:48:05.851Z,37.89
2019-04-11T06:50:55.865Z,37.92
2019-04-11T06:53:34.409Z,38.04
2019-04-11T06:56:33.486Z,37.98
2019-04-11T06:59:22.416Z,37.98
2019-04-11T07:01:55.052Z,37.71
2019-04-11T07:04:31.493Z,38.09
2019-04-11T07:07:28.793Z,38.15
2019-04-11T07:10:20.226Z,37.87
2019-04-11T07:13:05.515Z,37.87
2019-04-11T07:15:56.823Z,38.15
2019-04-11T07:18:56.946Z,38.05
2019-04-11T07:21:35.411Z,37.98
2019-04-11T07:24:24.795Z,37.78
2019-04-11T07:27:05.176Z,38.21
2019-04-11T07:29:58.455Z,38.46
2019-04-11T07:32:30.334Z,38.20
2019-04-11T07:35:19.307Z,38.14
2019-04-11T07:37:55.885Z,38.14
2019-04-11T07:40:44.397Z,38.07
2019-04-11T07:43:43.733Z,38.03
2019-04-11T07:46:25.042Z,38.57
2019-04-11T07:49:03.612Z,38.60
2019-04-11T07:51:43.079Z,38.70
2019-04-11T07:54:20.270Z,38.37
2019-04-11T07:57:03.866Z,38.65
2019-04-11T08:00:08.044Z,38.42
2019-04-11T08:03:15.727Z,38.45
2019-04-11T08:06:05.542Z,38.45
2019-04-11T08:09:02.734Z,38.13
2019-04-11T08:11:52.608Z,37.30
2019-04-11T08:14:46.414Z,37.56
2019-04-11T08:17:33.311Z,37.86
2019-04-11T08:20:25.775Z,38.60
2019-04-11T08:23:01.406Z,38.60
2019-04-11T08:25:50.786Z,38.64
2019-04-11T08:28:22.975Z,38.64
2019-04-11T08:31:19.582Z,38.76
2019-04-11T08:33:55.131Z,38.62
2019-04-11T08:36:44.603Z,38.36
2019-04-11T08:39:22.848Z,38.77
2019-04-11T08:42:13.532Z,38.77
2019-04-11T08:44:48.000Z,38.51
2019-04-11T08:47:22.417Z,38.56
2019-04-11T08:49:57.000Z,38.56
2019-04-11T08:52:44.422Z,38.65
2019-04-11T08:55:21.090Z,38.71
2019-04-11T08:57:58.306Z,38.53
2019-04-11T09:00:46.329Z,38.43
2019-04-11T09:03:36.276Z,38.57
2019-04-11T09:06:12.407Z,38.76
2019-04-11T09:09:02.793Z,38.53
2019-04-11T09:11:41.137Z,38.53
2019-04-11T09:14:35.886Z,38.83
2019-04-11T09:17:16.705Z,38.83
2019-04-11T09:20:07.552Z,38.54
2019-04-11T09:23:01.626Z,38.54
2019-04-11T09:25:53.017Z,38.55
2019-04-11T09:28:44.435Z,38.80
2019-04-11T09:31:42.551Z,38.98
2019-04-11T09:34:46.436Z,38.84
2019-04-11T09:37:25.449Z,38.87
2019-04-11T09:40:12.115Z,39.09
2019-04-11T09:43:09.345Z,39.09
2019-04-11T09:46:01.812Z,39.22
2019-04-11T09:49:02.425Z,38.82
2019-04-11T09:51:44.278Z,38.93
2019-04-11T09:54:35.045Z,38.90
2019-04-11T09:57:20.576Z,39.05
2019-04-11T10:00:16.443Z,39.08
2019-04-11T10:03:10.818Z,39.20
2019-04-11T10:06:19.717Z,39.03
2019-04-11T10:08:55.479Z,39.48
2019-04-11T10:11:44.327Z,39.18
2019-04-11T10:14:21.731Z,39.18
2019-04-11T10:17:16.854Z,39.29
2019-04-11T10:20:08.682Z,39.33
2019-04-11T10:23:01.414Z,39.34
2019-04-11T10:25:37.080Z,39.50
2019-04-11T10:28:31.316Z,39.25
2019-04-11T10:31:14.795Z,39.40
2019-04-11T10:34:04.656Z,39.36
2019-04-11T10:36:51.502Z,39.32
2019-04-11T10:39:59.819Z,39.32
2019-04-11T10:42:32.846Z,39.23
2019-04-11T10:45:24.858Z,39.45
2019-04-11T10:48:03.312Z,39.45
2019-04-11T10:50:54.121Z,39.40
2019-04-11T10:53:27.088Z,39.30
2019-04-11T10:56:16.264Z,38.99
2019-04-11T10:58:55.282Z,39.05
2019-04-11T11:01:44.697Z,39.05
2019-04-11T11:04:23.439Z,39.41
2019-04-11T11:07:02.346Z,39.41
2019-04-11T11:09:52.362Z,39.35
2019-04-11T11:12:47.561Z,39.14
2019-04-11T11:15:27.496Z,38.98
2019-04-11T11:21:01.782Z,39.12
2019-04-11T11:23:49.342Z,38.94
2019-04-11T11:26:25.683Z,39.23
2019-04-11T11:29:15.803Z,39.03
2019-04-11T11:31:56.914Z,39.02
2019-04-11T11:34:34.952Z,39.14
2019-04-11T11:37:31.499Z,38.97
2019-04-11T11:40:41.661Z,38.84
2019-04-11T11:43:32.955Z,38.92
2019-04-11T11:46:29.734Z,39.04
2019-04-11T11:49:07.911Z,38.87
2019-04-11T11:52:11.260Z,38.87
2019-04-11T11:54:50.214Z,38.78
2019-04-11T11:57:27.198Z,38.83
2019-04-11T12:00:12.702Z,38.82
2019-04-11T12:02:59.467Z,38.86
2019-04-11T12:05:34.883Z,38.71
2019-04-11T12:08:24.630Z,38.71
2019-04-11T12:11:06.043Z,38.74
2019-04-11T12:14:05.111Z,38.88
2019-04-11T12:17:01.918Z,38.84
2019-04-11T12:19:49.298Z,38.72
2019-04-11T12:22:16.010Z,38.91
2019-04-11T12:25:16.585Z,38.91
2019-04-11T12:28:13.709Z,38.81
2019-04-11T12:30:48.162Z,38.81
2019-04-11T12:33:29.716Z,38.68
2019-04-11T12:36:26.457Z,38.65
2019-04-11T12:39:28.785Z,38.65
2019-04-11T12:42:21.350Z,38.49
2019-04-11T12:45:10.581Z,38.48
2019-04-11T12:47:49.514Z,38.38
2019-04-11T12:50:40.064Z,38.35
2019-04-11T12:53:13.985Z,38.35
2019-04-11T12:56:03.001Z,38.13
2019-04-11T12:58:46.882Z,38.02
2019-04-11T13:01:49.791Z,38.18
2019-04-11T13:04:31.974Z,38.01
2019-04-11T13:07:34.306Z,37.18
2019-04-11T13:10:24.078Z,37.18
2019-04-11T13:13:21.012Z,36.75
2019-04-11T13:15:59.157Z,36.75
2019-04-11T13:19:02.071Z,36.82
2019-04-11T13:21:40.521Z,36.89
2019-04-11T13:24:29.652Z,36.81
2019-04-11T13:27:25.977Z,36.81
2019-04-11T13:30:17.901Z,36.76
2019-04-11T13:32:57.949Z,36.75
2019-04-11T13:36:02.226Z,36.62
2019-04-11T13:38:41.881Z,36.51
2019-04-11T13:41:30.995Z,36.51
2019-04-11T13:44:12.223Z,36.46
2019-04-11T13:47:02.735Z,36.36
2019-04-11T13:49:45.045Z,36.31
2019-04-11T13:52:35.959Z,36.31
2019-04-11T13:55:23.140Z,36.25
2019-04-11T13:58:14.271Z,36.22
2019-04-11T14:00:53.735Z,36.24
2019-04-11T14:03:44.453Z,36.24
2019-04-11T14:06:31.990Z,36.13
2019-04-11T14:09:26.035Z,36.05
2019-04-11T14:11:59.622Z,36.02
2019-04-11T14:14:53.477Z,36.02
2019-04-11T14:17:51.206Z,35.98
2019-04-11T14:20:51.516Z,35.86
2019-04-11T14:23:42.734Z,35.85
2019-04-11T14:26:34.249Z,35.85
2019-04-11T14:29:40.819Z,35.85
2019-04-11T14:32:38.823Z,35.76
2019-04-11T14:35:40.658Z,35.63
2019-04-11T14:38:14.258Z,35.61
2019-04-11T14:41:01.631Z,35.56
2019-04-11T14:43:37.490Z,35.50
2019-04-11T14:46:22.342Z,35.42
2019-04-11T14:49:15.042Z,35.42
2019-04-11T14:52:04.011Z,35.41
2019-04-11T14:54:39.706Z,35.38
2019-04-11T14:57:35.529Z,35.33
2019-04-11T15:00:28.144Z,35.33
2019-04-11T15:03:25.016Z,35.20
2019-04-11T15:06:01.901Z,35.20
2019-04-11T15:08:50.511Z,35.19
2019-04-11T15:11:42.141Z,35.19
2019-04-11T15:14:28.618Z,35.12
2019-04-11T15:17:21.537Z,35.12
2019-04-11T15:20:09.186Z,34.95
2019-04-11T15:22:44.909Z,34.96
2019-04-11T15:25:37.922Z,34.89
2019-04-11T15:28:36.207Z,34.89
2019-04-11T15:31:26.214Z,34.86
2019-04-11T15:34:26.401Z,34.86
2019-04-11T15:37:19.307Z,34.86
2019-04-11T15:40:09.809Z,34.81
2019-04-11T15:43:03.419Z,34.81
2019-04-11T15:46:01.394Z,34.81
2019-04-11T15:49:01.230Z,34.77
2019-04-11T15:51:36.370Z,34.76
2019-04-11T15:54:27.376Z,34.69
2019-04-11T15:57:05.631Z,34.62
2019-04-11T15:59:56.226Z,34.58
2019-04-11T16:02:59.474Z,34.60
2019-04-11T16:05:50.057Z,34.57
2019-04-11T16:08:30.900Z,34.56
2019-04-11T16:11:39.851Z,34.85
2019-04-11T16:14:19.588Z,34.93
2019-04-11T16:17:25.596Z,34.74
2019-04-11T16:20:00.939Z,34.69
2019-04-11T16:23:11.383Z,34.47
2019-04-11T16:25:55.968Z,34.47
2019-04-11T16:28:56.171Z,34.52
2019-04-11T16:31:34.720Z,34.55
2019-04-11T16:34:24.701Z,34.89
2019-04-11T16:37:00.043Z,34.83
2019-04-11T16:39:53.500Z,34.71
2019-04-11T16:42:45.049Z,34.69
2019-04-11T16:45:33.632Z,34.81
2019-04-11T16:48:05.005Z,34.77
2019-04-11T16:50:36.907Z,34.71
2019-04-11T16:53:11.524Z,34.71
2019-04-11T16:55:43.607Z,34.70
2019-04-11T16:58:19.651Z,34.68
2019-04-11T17:00:52.637Z,34.66
2019-04-11T17:03:25.153Z,34.77
2019-04-11T17:06:10.308Z,34.76
2019-04-11T17:08:51.632Z,34.83
2019-04-11T17:11:26.675Z,34.74
2019-04-11T17:13:57.881Z,34.61
2019-04-11T17:16:30.724Z,34.69
2019-04-11T17:19:05.529Z,34.70
2019-04-11T17:21:43.200Z,34.73
2019-04-11T17:24:09.789Z,34.63
2019-04-11T17:26:41.683Z,34.66
2019-04-11T17:29:14.606Z,34.49
2019-04-11T17:31:46.562Z,34.60
2019-04-11T17:34:18.148Z,34.48
2019-04-11T17:36:49.751Z,34.53
2019-04-11T17:39:22.309Z,34.59
2019-04-11T17:41:53.866Z,34.56
2019-04-11T17:44:27.882Z,34.68
2019-04-11T17:46:59.496Z,34.68
2019-04-11T17:49:31.089Z,34.42
2019-04-11T17:52:04.878Z,34.44
2019-04-11T17:54:36.010Z,34.44
2019-04-11T17:57:07.812Z,34.42
2019-04-11T17:59:39.299Z,34.39
2019-04-11T18:02:11.183Z,34.31
2019-04-11T18:04:45.747Z,34.57
2019-04-11T18:07:17.619Z,34.45
2019-04-11T18:09:49.600Z,34.45
2019-04-11T18:12:21.101Z,34.24
2019-04-11T18:14:53.892Z,34.42
2019-04-11T18:17:25.573Z,34.29
2019-04-11T18:19:57.414Z,34.29
2019-04-11T18:22:28.964Z,34.26
2019-04-11T18:25:00.503Z,34.34
2019-04-11T18:27:33.170Z,34.34
2019-04-11T18:30:07.088Z,34.38
2019-04-11T18:32:38.895Z,34.26
2019-04-11T18:35:12.806Z,33.98
2019-04-11T18:37:44.380Z,34.16
2019-04-11T18:40:18.140Z,34.16
2019-04-11T18:42:51.894Z,34.19
2019-04-11T18:45:24.018Z,34.19
2019-04-11T18:47:55.501Z,34.10
2019-04-11T18:50:28.821Z,34.09
2019-04-11T18:53:00.544Z,34.09
2019-04-11T18:55:32.147Z,33.96
2019-04-11T18:58:04.861Z,33.96
2019-04-11T19:00:38.325Z,33.99
2019-04-11T19:03:14.320Z,33.86
2019-04-11T19:05:45.104Z,33.86
2019-04-11T19:08:16.820Z,33.87
2019-04-11T19:10:48.745Z,33.87
2019-04-11T19:13:20.963Z,33.87
2019-04-11T19:15:55.231Z,34.00
2019-04-11T19:18:27.150Z,33.68
2019-04-11T19:20:59.038Z,33.78
2019-04-11T19:23:30.783Z,33.78
2019-04-11T19:26:02.398Z,33.78
2019-04-11T19:28:34.066Z,33.40
2019-04-11T19:31:06.092Z,33.50
2019-04-11T19:33:39.858Z,33.46
2019-04-11T19:36:12.264Z,33.46
2019-04-11T19:38:44.552Z,33.44
2019-04-11T19:41:17.999Z,33.65
2019-04-11T19:43:51.303Z,33.60
2019-04-11T19:46:23.028Z,33.65
2019-04-11T19:48:59.062Z,33.56
2019-04-11T19:51:29.540Z,33.49
2019-04-11T19:54:03.350Z,33.40
2019-04-11T19:56:48.462Z,33.46
2019-04-11T19:59:20.101Z,33.41
2019-04-11T20:01:53.212Z,33.39
2019-04-11T20:04:25.910Z,33.42
2019-04-11T20:06:57.814Z,33.21
2019-04-11T20:09:29.418Z,33.21
2019-04-11T20:12:01.206Z,33.26
2019-04-11T20:14:34.801Z,33.01
2019-04-11T20:17:09.067Z,33.01
2019-04-11T20:19:39.847Z,32.86
2019-04-11T20:22:11.508Z,32.86
2019-04-11T20:24:46.758Z,32.76
2019-04-11T20:27:20.088Z,32.76
2019-04-11T20:29:53.124Z,32.54
2019-04-11T20:32:24.130Z,32.54
2019-04-11T20:34:58.905Z,32.68
2019-04-11T20:37:39.130Z,32.68
2019-04-11T20:40:04.383Z,32.69
2019-04-11T20:42:36.190Z,32.71
2019-04-11T20:45:08.093Z,32.71
2019-04-11T20:47:39.926Z,32.72
2019-04-11T20:50:12.118Z,32.65
2019-04-11T20:52:44.093Z,32.69
2019-04-11T20:55:16.022Z,32.69
2019-04-11T20:57:48.220Z,32.52
2019-04-11T21:00:27.456Z,32.45
2019-04-11T21:03:00.422Z,32.52
2019-04-11T21:05:33.268Z,32.61
2019-04-11T21:08:05.092Z,32.68
2019-04-11T21:10:36.607Z,32.73
2019-04-11T21:13:08.407Z,32.75
2019-04-11T21:15:40.202Z,32.75
2019-04-11T21:18:12.153Z,32.61
2019-04-11T21:20:43.916Z,32.52
2019-04-11T21:23:24.491Z,32.52
2019-04-11T21:25:49.482Z,32.44
2019-04-11T21:28:21.259Z,32.34
2019-04-11T21:30:53.123Z,32.37
2019-04-11T21:33:24.978Z,32.37
2019-04-11T21:35:56.836Z,32.35
2019-04-11T21:38:31.647Z,32.35
2019-04-11T21:41:05.905Z,32.48
2019-04-11T21:43:37.543Z,32.44
2019-04-11T21:46:09.175Z,32.44
2019-04-11T21:48:40.858Z,32.45
2019-04-11T21:51:12.929Z,32.33
2019-04-11T21:53:45.343Z,32.43
2019-04-11T21:56:19.325Z,32.23
2019-04-11T21:58:51.074Z,32.23
2019-04-11T22:01:24.985Z,32.44
2019-04-11T22:03:58.477Z,32.29
2019-04-11T22:06:31.126Z,32.09
2019-04-11T22:09:05.072Z,32.09
2019-04-11T22:11:38.359Z,32.07
2019-04-11T22:14:11.300Z,32.07
2019-04-11T22:16:45.170Z,32.09
2019-04-11T22:19:16.977Z,32.18
2019-04-11T22:21:50.620Z,32.09
2019-04-11T22:24:22.232Z,31.97
2019-04-11T22:26:54.245Z,31.97
2019-04-11T22:29:25.904Z,31.92
2019-04-11T22:31:58.561Z,31.96
2019-04-11T22:34:42.822Z,31.87
2019-04-11T22:37:14.567Z,31.95
2019-04-11T22:39:46.582Z,32.01
2019-04-11T22:42:18.199Z,31.87
2019-04-11T22:44:49.932Z,31.69
2019-04-11T22:47:22.046Z,31.69
2019-04-11T22:49:54.147Z,31.65
2019-04-11T22:52:26.014Z,31.69
2019-04-11T22:54:57.445Z,31.67
2019-04-11T22:57:29.344Z,31.62
2019-04-11T23:00:01.093Z,31.67
2019-04-11T23:02:47.436Z,31.75
2019-04-11T23:05:20.068Z,31.75
2019-04-11T23:07:51.926Z,31.77
2019-04-11T23:10:24.470Z,31.65
2019-04-11T23:12:56.354Z,31.61
2019-04-11T23:15:28.035Z,31.53
2019-04-11T23:17:59.607Z,31.53
2019-04-11T23:20:31.556Z,31.65
2019-04-11T23:23:03.747Z,31.68
2019-04-11T23:25:36.602Z,31.65
2019-04-11T23:28:08.408Z,31.79
2019-04-11T23:30:40.151Z,31.79
2019-04-11T23:33:15.527Z,31.66
2019-04-11T23:35:48.873Z,31.60
2019-04-11T23:38:23.579Z,31.60
2019-04-11T23:40:54.408Z,31.50
2019-04-11T23:43:26.123Z,31.39
2019-04-11T23:45:57.948Z,31.57
2019-04-11T23:48:29.733Z,31.82
2019-04-11T23:51:01.597Z,31.49
2019-04-11T23:53:35.311Z,31.31
2019-04-11T23:56:07.053Z,31.31
2019-04-11T23:58:39.064Z,31.49
